sensor_id;sensor_type;location;lat;lon;timestamp;P1;durP1;ratioP1;P2;durP2;ratioP2
1178;SDS011;578;48.408;10.004;2022-12-29T00:02:08;8.50;;;4.07;;
1178;SDS011;578;48.408;10.004;2022-12-29T00:04:35;4.72;;;3.22;;
1178;SDS011;578;48.408;10.004;2022-12-29T00:07:03;4.78;;;3.20;;
1178;SDS011;578;48.408;10.004;2022-12-29T00:09:30;4.50;;;3.25;;
1178;SDS011;578;48.408;10.004;2022-12-29T00:11:57;4.68;;;3.15;;
1178;SDS011;578;48.408;10.004;2022-12-29T00:14:23;4.72;;;3.30;;
1178;SDS011;578;48.408;10.004;2022-12-29T00:17:08;3.50;;;2.80;;
1178;SDS011;578;48.408;10.004;2022-12-29T00:19:35;5.07;;;3.63;;
1178;SDS011;578;48.408;10.004;2022-12-29T00:22:23;4.00;;;3.60;;
1178;SDS011;578;48.408;10.004;2022-12-29T00:25:07;5.50;;;3.70;;
1178;SDS011;578;48.408;10.004;2022-12-29T00:27:53;3.70;;;3.33;;
1178;SDS011;578;48.408;10.004;2022-12-29T00:30:37;4.13;;;3.20;;
1178;SDS011;578;48.408;10.004;2022-12-29T00:33:22;4.37;;;3.50;;
1178;SDS011;578;48.408;10.004;2022-12-29T00:36:11;7.05;;;3.20;;
1178;SDS011;578;48.408;10.004;2022-12-29T00:38:43;2.73;;;2.50;;
1178;SDS011;578;48.408;10.004;2022-12-29T00:41:31;9.07;;;3.30;;
1178;SDS011;578;48.408;10.004;2022-12-29T00:44:16;5.63;;;3.83;;
1178;SDS011;578;48.408;10.004;2022-12-29T00:46:43;5.03;;;3.30;;
1178;SDS011;578;48.408;10.004;2022-12-29T00:49:11;3.80;;;3.37;;
1178;SDS011;578;48.408;10.004;2022-12-29T00:51:57;4.87;;;4.13;;
1178;SDS011;578;48.408;10.004;2022-12-29T00:54:27;6.33;;;3.50;;
1178;SDS011;578;48.408;10.004;2022-12-29T00:56:54;4.17;;;3.23;;
1178;SDS011;578;48.408;10.004;2022-12-29T00:59:21;3.42;;;2.85;;
1178;SDS011;578;48.408;10.004;2022-12-29T01:01:49;5.87;;;3.80;;
1178;SDS011;578;48.408;10.004;2022-12-29T01:04:17;5.07;;;3.10;;
1178;SDS011;578;48.408;10.004;2022-12-29T01:06:44;4.00;;;3.23;;
1178;SDS011;578;48.408;10.004;2022-12-29T01:09:11;3.30;;;2.73;;
1178;SDS011;578;48.408;10.004;2022-12-29T01:11:57;4.30;;;2.67;;
1178;SDS011;578;48.408;10.004;2022-12-29T01:14:24;6.18;;;3.60;;
1178;SDS011;578;48.408;10.004;2022-12-29T01:16:51;4.40;;;3.03;;
1178;SDS011;578;48.408;10.004;2022-12-29T01:19:18;4.37;;;3.27;;
1178;SDS011;578;48.408;10.004;2022-12-29T01:21:45;3.27;;;2.37;;
1178;SDS011;578;48.408;10.004;2022-12-29T01:24:13;4.07;;;2.97;;
1178;SDS011;578;48.408;10.004;2022-12-29T01:26:40;3.57;;;2.83;;
1178;SDS011;578;48.408;10.004;2022-12-29T01:29:08;4.63;;;2.47;;
1178;SDS011;578;48.408;10.004;2022-12-29T01:31:35;3.40;;;2.77;;
1178;SDS011;578;48.408;10.004;2022-12-29T01:34:02;5.10;;;3.20;;
1178;SDS011;578;48.408;10.004;2022-12-29T01:36:28;3.37;;;2.73;;
1178;SDS011;578;48.408;10.004;2022-12-29T01:38:56;4.83;;;2.83;;
1178;SDS011;578;48.408;10.004;2022-12-29T01:41:23;3.57;;;2.90;;
1178;SDS011;578;48.408;10.004;2022-12-29T01:43:50;3.57;;;2.63;;
1178;SDS011;578;48.408;10.004;2022-12-29T01:46:20;2.80;;;2.33;;
1178;SDS011;578;48.408;10.004;2022-12-29T01:48:51;2.65;;;2.38;;
1178;SDS011;578;48.408;10.004;2022-12-29T01:51:21;3.80;;;2.63;;
1178;SDS011;578;48.408;10.004;2022-12-29T01:53:49;3.63;;;2.60;;
1178;SDS011;578;48.408;10.004;2022-12-29T01:56:17;3.13;;;1.93;;
1178;SDS011;578;48.408;10.004;2022-12-29T01:58:46;3.43;;;2.50;;
1178;SDS011;578;48.408;10.004;2022-12-29T02:01:15;3.73;;;2.87;;
1178;SDS011;578;48.408;10.004;2022-12-29T02:03:46;3.67;;;2.90;;
1178;SDS011;578;48.408;10.004;2022-12-29T02:06:16;5.90;;;2.37;;
1178;SDS011;578;48.408;10.004;2022-12-29T02:08:46;3.33;;;2.50;;
1178;SDS011;578;48.408;10.004;2022-12-29T02:11:15;4.82;;;2.20;;
1178;SDS011;578;48.408;10.004;2022-12-29T02:13:42;4.30;;;2.97;;
1178;SDS011;578;48.408;10.004;2022-12-29T02:16:13;2.67;;;2.20;;
1178;SDS011;578;48.408;10.004;2022-12-29T02:18:51;3.13;;;2.60;;
1178;SDS011;578;48.408;10.004;2022-12-29T02:27:21;4.13;;;2.53;;
1178;SDS011;578;48.408;10.004;2022-12-29T02:30:29;4.30;;;3.17;;
1178;SDS011;578;48.408;10.004;2022-12-29T02:33:21;3.00;;;2.43;;
1178;SDS011;578;48.408;10.004;2022-12-29T02:35:56;4.37;;;2.63;;
1178;SDS011;578;48.408;10.004;2022-12-29T02:38:36;3.42;;;2.80;;
1178;SDS011;578;48.408;10.004;2022-12-29T02:41:17;3.10;;;2.40;;
1178;SDS011;578;48.408;10.004;2022-12-29T02:43:49;4.90;;;3.00;;
1178;SDS011;578;48.408;10.004;2022-12-29T02:46:23;3.83;;;3.30;;
1178;SDS011;578;48.408;10.004;2022-12-29T02:49:01;3.20;;;2.20;;
1178;SDS011;578;48.408;10.004;2022-12-29T02:51:46;3.90;;;2.60;;
1178;SDS011;578;48.408;10.004;2022-12-29T02:54:17;2.75;;;1.70;;
1178;SDS011;578;48.408;10.004;2022-12-29T02:57:02;3.13;;;2.50;;
1178;SDS011;578;48.408;10.004;2022-12-29T02:59:31;4.83;;;2.90;;
1178;SDS011;578;48.408;10.004;2022-12-29T03:02:07;5.37;;;3.10;;
1178;SDS011;578;48.408;10.004;2022-12-29T03:04:51;2.70;;;2.00;;
1178;SDS011;578;48.408;10.004;2022-12-29T03:07:36;2.97;;;2.20;;
1178;SDS011;578;48.408;10.004;2022-12-29T03:10:12;3.53;;;2.75;;
1178;SDS011;578;48.408;10.004;2022-12-29T03:12:46;2.90;;;2.43;;
1178;SDS011;578;48.408;10.004;2022-12-29T03:15:36;2.87;;;2.20;;
1178;SDS011;578;48.408;10.004;2022-12-29T03:18:30;5.40;;;3.07;;
1178;SDS011;578;48.408;10.004;2022-12-29T03:21:06;4.13;;;3.73;;
1178;SDS011;578;48.408;10.004;2022-12-29T03:23:37;3.37;;;1.83;;
1178;SDS011;578;48.408;10.004;2022-12-29T03:26:07;3.00;;;1.97;;
1178;SDS011;578;48.408;10.004;2022-12-29T03:28:38;2.78;;;2.03;;
1178;SDS011;578;48.408;10.004;2022-12-29T03:31:10;4.03;;;2.67;;
1178;SDS011;578;48.408;10.004;2022-12-29T03:33:40;7.20;;;2.80;;
1178;SDS011;578;48.408;10.004;2022-12-29T03:36:09;2.70;;;2.17;;
1178;SDS011;578;48.408;10.004;2022-12-29T03:38:42;3.50;;;2.33;;
1178;SDS011;578;48.408;10.004;2022-12-29T03:41:14;4.43;;;2.17;;
1178;SDS011;578;48.408;10.004;2022-12-29T03:43:44;3.83;;;2.20;;
1178;SDS011;578;48.408;10.004;2022-12-29T03:46:11;3.70;;;2.57;;
1178;SDS011;578;48.408;10.004;2022-12-29T03:48:38;4.10;;;2.30;;
1178;SDS011;578;48.408;10.004;2022-12-29T03:51:06;2.53;;;1.80;;
1178;SDS011;578;48.408;10.004;2022-12-29T03:53:33;3.07;;;1.93;;
1178;SDS011;578;48.408;10.004;2022-12-29T03:55:59;5.03;;;2.37;;
1178;SDS011;578;48.408;10.004;2022-12-29T03:58:26;2.30;;;1.60;;
1178;SDS011;578;48.408;10.004;2022-12-29T04:00:53;2.10;;;1.30;;
1178;SDS011;578;48.408;10.004;2022-12-29T04:03:20;4.20;;;1.57;;
1178;SDS011;578;48.408;10.004;2022-12-29T04:05:46;2.70;;;1.83;;
1178;SDS011;578;48.408;10.004;2022-12-29T04:08:14;5.93;;;1.90;;
1178;SDS011;578;48.408;10.004;2022-12-29T04:10:41;2.43;;;2.03;;
1178;SDS011;578;48.408;10.004;2022-12-29T04:13:08;3.40;;;1.97;;
1178;SDS011;578;48.408;10.004;2022-12-29T04:15:34;3.42;;;2.15;;
1178;SDS011;578;48.408;10.004;2022-12-29T04:18:02;2.13;;;1.63;;
1178;SDS011;578;48.408;10.004;2022-12-29T04:20:29;2.30;;;1.47;;
1178;SDS011;578;48.408;10.004;2022-12-29T04:23:14;3.43;;;1.70;;
1178;SDS011;578;48.408;10.004;2022-12-29T04:25:44;2.50;;;2.20;;
1178;SDS011;578;48.408;10.004;2022-12-29T04:28:11;2.67;;;1.80;;
1178;SDS011;578;48.408;10.004;2022-12-29T04:30:38;2.20;;;2.00;;
1178;SDS011;578;48.408;10.004;2022-12-29T04:33:05;4.17;;;1.80;;
1178;SDS011;578;48.408;10.004;2022-12-29T04:35:32;3.63;;;2.03;;
1178;SDS011;578;48.408;10.004;2022-12-29T04:37:58;5.37;;;2.07;;
1178;SDS011;578;48.408;10.004;2022-12-29T04:40:26;5.33;;;2.30;;
1178;SDS011;578;48.408;10.004;2022-12-29T04:42:53;2.97;;;1.60;;
1178;SDS011;578;48.408;10.004;2022-12-29T04:45:20;2.03;;;1.70;;
1178;SDS011;578;48.408;10.004;2022-12-29T04:47:46;3.33;;;1.93;;
1178;SDS011;578;48.408;10.004;2022-12-29T04:50:13;2.50;;;1.50;;
1178;SDS011;578;48.408;10.004;2022-12-29T04:52:40;2.70;;;1.37;;
1178;SDS011;578;48.408;10.004;2022-12-29T04:55:07;2.20;;;1.40;;
1178;SDS011;578;48.408;10.004;2022-12-29T04:57:35;2.77;;;1.53;;
1178;SDS011;578;48.408;10.004;2022-12-29T05:00:02;1.80;;;1.30;;
1178;SDS011;578;48.408;10.004;2022-12-29T05:02:29;2.70;;;1.60;;
1178;SDS011;578;48.408;10.004;2022-12-29T05:04:56;1.47;;;1.07;;
1178;SDS011;578;48.408;10.004;2022-12-29T05:07:23;3.77;;;1.93;;
1178;SDS011;578;48.408;10.004;2022-12-29T05:09:50;1.80;;;1.02;;
1178;SDS011;578;48.408;10.004;2022-12-29T05:12:16;1.80;;;1.20;;
1178;SDS011;578;48.408;10.004;2022-12-29T05:14:44;1.77;;;1.20;;
1178;SDS011;578;48.408;10.004;2022-12-29T05:17:11;1.70;;;1.30;;
1178;SDS011;578;48.408;10.004;2022-12-29T05:19:38;2.90;;;1.50;;
1178;SDS011;578;48.408;10.004;2022-12-29T05:22:04;4.30;;;1.73;;
1178;SDS011;578;48.408;10.004;2022-12-29T05:24:31;1.83;;;1.50;;
1178;SDS011;578;48.408;10.004;2022-12-29T05:26:58;3.45;;;1.50;;
1178;SDS011;578;48.408;10.004;2022-12-29T05:29:24;2.07;;;1.30;;
1178;SDS011;578;48.408;10.004;2022-12-29T05:31:52;2.20;;;1.60;;
1178;SDS011;578;48.408;10.004;2022-12-29T05:34:19;3.17;;;1.80;;
1178;SDS011;578;48.408;10.004;2022-12-29T05:36:45;2.33;;;1.10;;
1178;SDS011;578;48.408;10.004;2022-12-29T05:39:12;2.15;;;1.50;;
1178;SDS011;578;48.408;10.004;2022-12-29T05:41:39;2.30;;;1.50;;
1178;SDS011;578;48.408;10.004;2022-12-29T05:44:06;1.92;;;1.48;;
1178;SDS011;578;48.408;10.004;2022-12-29T05:46:32;3.37;;;1.40;;
1178;SDS011;578;48.408;10.004;2022-12-29T05:49:00;3.30;;;1.80;;
1178;SDS011;578;48.408;10.004;2022-12-29T05:51:27;2.43;;;1.43;;
1178;SDS011;578;48.408;10.004;2022-12-29T05:53:54;2.10;;;1.30;;
1178;SDS011;578;48.408;10.004;2022-12-29T05:56:20;3.40;;;2.07;;
1178;SDS011;578;48.408;10.004;2022-12-29T05:58:47;2.80;;;1.80;;
1178;SDS011;578;48.408;10.004;2022-12-29T06:01:14;1.50;;;1.20;;
1178;SDS011;578;48.408;10.004;2022-12-29T06:03:40;3.53;;;2.22;;
1178;SDS011;578;48.408;10.004;2022-12-29T06:06:08;2.67;;;1.58;;
1178;SDS011;578;48.408;10.004;2022-12-29T06:08:35;2.20;;;1.80;;
1178;SDS011;578;48.408;10.004;2022-12-29T06:11:02;2.33;;;1.83;;
1178;SDS011;578;48.408;10.004;2022-12-29T06:13:28;2.55;;;2.20;;
1178;SDS011;578;48.408;10.004;2022-12-29T06:15:55;2.92;;;2.60;;
1178;SDS011;578;48.408;10.004;2022-12-29T06:18:22;5.60;;;1.80;;
1178;SDS011;578;48.408;10.004;2022-12-29T06:20:48;4.17;;;1.93;;
1178;SDS011;578;48.408;10.004;2022-12-29T06:23:17;2.58;;;1.70;;
1178;SDS011;578;48.408;10.004;2022-12-29T06:25:44;3.10;;;1.85;;
1178;SDS011;578;48.408;10.004;2022-12-29T06:28:12;2.00;;;1.33;;
1178;SDS011;578;48.408;10.004;2022-12-29T06:30:39;3.25;;;2.20;;
1178;SDS011;578;48.408;10.004;2022-12-29T06:33:05;2.77;;;2.03;;
1178;SDS011;578;48.408;10.004;2022-12-29T06:35:33;2.53;;;1.85;;
1178;SDS011;578;48.408;10.004;2022-12-29T06:38:00;2.40;;;2.00;;
1178;SDS011;578;48.408;10.004;2022-12-29T06:40:28;3.05;;;1.65;;
1178;SDS011;578;48.408;10.004;2022-12-29T06:42:54;2.00;;;1.40;;
1178;SDS011;578;48.408;10.004;2022-12-29T06:45:21;3.70;;;1.90;;
1178;SDS011;578;48.408;10.004;2022-12-29T06:47:48;7.35;;;2.28;;
1178;SDS011;578;48.408;10.004;2022-12-29T06:50:15;3.63;;;2.58;;
1178;SDS011;578;48.408;10.004;2022-12-29T06:52:41;4.77;;;2.90;;
1178;SDS011;578;48.408;10.004;2022-12-29T06:55:08;2.72;;;1.90;;
1178;SDS011;578;48.408;10.004;2022-12-29T06:57:36;4.03;;;2.22;;
1178;SDS011;578;48.408;10.004;2022-12-29T07:00:03;3.25;;;2.17;;
1178;SDS011;578;48.408;10.004;2022-12-29T07:02:30;3.47;;;2.50;;
1178;SDS011;578;48.408;10.004;2022-12-29T07:04:57;3.20;;;2.00;;
1178;SDS011;578;48.408;10.004;2022-12-29T07:07:24;2.80;;;2.20;;
1178;SDS011;578;48.408;10.004;2022-12-29T07:09:50;4.28;;;2.63;;
1178;SDS011;578;48.408;10.004;2022-12-29T07:12:17;2.42;;;1.90;;
1178;SDS011;578;48.408;10.004;2022-12-29T07:14:45;2.83;;;1.98;;
1178;SDS011;578;48.408;10.004;2022-12-29T07:17:12;3.58;;;2.35;;
1178;SDS011;578;48.408;10.004;2022-12-29T07:19:38;3.17;;;2.88;;
1178;SDS011;578;48.408;10.004;2022-12-29T07:22:05;3.05;;;2.17;;
1178;SDS011;578;48.408;10.004;2022-12-29T07:24:32;3.95;;;2.38;;
1178;SDS011;578;48.408;10.004;2022-12-29T07:26:58;3.47;;;1.85;;
1178;SDS011;578;48.408;10.004;2022-12-29T07:29:25;2.97;;;2.03;;
1178;SDS011;578;48.408;10.004;2022-12-29T07:31:53;3.38;;;2.72;;
1178;SDS011;578;48.408;10.004;2022-12-29T07:34:20;2.80;;;1.65;;
1178;SDS011;578;48.408;10.004;2022-12-29T07:36:46;3.67;;;2.10;;
1178;SDS011;578;48.408;10.004;2022-12-29T07:39:13;2.28;;;2.08;;
1178;SDS011;578;48.408;10.004;2022-12-29T07:41:40;2.93;;;2.20;;
1178;SDS011;578;48.408;10.004;2022-12-29T07:44:08;7.90;;;2.38;;
1178;SDS011;578;48.408;10.004;2022-12-29T07:46:35;3.78;;;2.03;;
1178;SDS011;578;48.408;10.004;2022-12-29T07:49:03;3.53;;;2.20;;
1178;SDS011;578;48.408;10.004;2022-12-29T07:51:29;4.80;;;2.23;;
1178;SDS011;578;48.408;10.004;2022-12-29T07:53:57;2.60;;;1.80;;
1178;SDS011;578;48.408;10.004;2022-12-29T07:56:25;3.67;;;2.30;;
1178;SDS011;578;48.408;10.004;2022-12-29T07:58:51;6.13;;;2.90;;
1178;SDS011;578;48.408;10.004;2022-12-29T08:01:18;6.38;;;2.10;;
1178;SDS011;578;48.408;10.004;2022-12-29T08:03:46;2.53;;;2.30;;
1178;SDS011;578;48.408;10.004;2022-12-29T08:06:14;6.73;;;2.90;;
1178;SDS011;578;48.408;10.004;2022-12-29T08:08:41;3.75;;;2.65;;
1178;SDS011;578;48.408;10.004;2022-12-29T08:11:07;4.03;;;2.40;;
1178;SDS011;578;48.408;10.004;2022-12-29T08:13:34;3.73;;;2.37;;
1178;SDS011;578;48.408;10.004;2022-12-29T08:16:01;4.60;;;2.50;;
1178;SDS011;578;48.408;10.004;2022-12-29T08:18:27;4.60;;;2.53;;
1178;SDS011;578;48.408;10.004;2022-12-29T08:20:54;3.43;;;2.23;;
1178;SDS011;578;48.408;10.004;2022-12-29T08:23:22;5.53;;;3.07;;
1178;SDS011;578;48.408;10.004;2022-12-29T08:25:56;2.60;;;2.17;;
1178;SDS011;578;48.408;10.004;2022-12-29T08:28:23;3.00;;;2.70;;
1178;SDS011;578;48.408;10.004;2022-12-29T08:30:50;4.00;;;2.13;;
1178;SDS011;578;48.408;10.004;2022-12-29T08:33:17;5.03;;;3.03;;
1178;SDS011;578;48.408;10.004;2022-12-29T08:35:44;4.77;;;3.77;;
1178;SDS011;578;48.408;10.004;2022-12-29T08:38:11;3.10;;;2.67;;
1178;SDS011;578;48.408;10.004;2022-12-29T08:40:39;4.20;;;3.47;;
1178;SDS011;578;48.408;10.004;2022-12-29T08:43:06;4.93;;;2.50;;
1178;SDS011;578;48.408;10.004;2022-12-29T08:45:32;4.90;;;3.20;;
1178;SDS011;578;48.408;10.004;2022-12-29T08:47:59;4.87;;;2.80;;
1178;SDS011;578;48.408;10.004;2022-12-29T08:50:26;3.67;;;2.67;;
1178;SDS011;578;48.408;10.004;2022-12-29T08:52:52;5.37;;;3.50;;
1178;SDS011;578;48.408;10.004;2022-12-29T08:55:19;2.90;;;1.90;;
1178;SDS011;578;48.408;10.004;2022-12-29T08:57:47;5.07;;;3.50;;
1178;SDS011;578;48.408;10.004;2022-12-29T09:00:14;6.27;;;2.90;;
1178;SDS011;578;48.408;10.004;2022-12-29T09:02:41;3.50;;;2.97;;
1178;SDS011;578;48.408;10.004;2022-12-29T09:05:08;6.90;;;2.70;;
1178;SDS011;578;48.408;10.004;2022-12-29T09:07:35;4.80;;;3.00;;
1178;SDS011;578;48.408;10.004;2022-12-29T09:10:02;12.40;;;3.60;;
1178;SDS011;578;48.408;10.004;2022-12-29T09:12:29;3.10;;;2.70;;
1178;SDS011;578;48.408;10.004;2022-12-29T09:14:58;3.53;;;2.97;;
1178;SDS011;578;48.408;10.004;2022-12-29T09:17:24;4.30;;;2.70;;
1178;SDS011;578;48.408;10.004;2022-12-29T09:20:10;4.50;;;3.40;;
1178;SDS011;578;48.408;10.004;2022-12-29T09:22:37;4.97;;;2.93;;
1178;SDS011;578;48.408;10.004;2022-12-29T09:25:04;4.20;;;2.67;;
1178;SDS011;578;48.408;10.004;2022-12-29T09:27:31;4.93;;;2.80;;
1178;SDS011;578;48.408;10.004;2022-12-29T09:29:59;4.43;;;2.57;;
1178;SDS011;578;48.408;10.004;2022-12-29T09:32:25;4.53;;;2.50;;
1178;SDS011;578;48.408;10.004;2022-12-29T09:34:52;2.87;;;2.40;;
1178;SDS011;578;48.408;10.004;2022-12-29T09:37:19;3.00;;;2.50;;
1178;SDS011;578;48.408;10.004;2022-12-29T09:39:46;3.57;;;2.10;;
1178;SDS011;578;48.408;10.004;2022-12-29T09:42:14;4.53;;;2.60;;
1178;SDS011;578;48.408;10.004;2022-12-29T09:44:51;6.43;;;2.80;;
1178;SDS011;578;48.408;10.004;2022-12-29T09:47:28;4.53;;;3.10;;
1178;SDS011;578;48.408;10.004;2022-12-29T09:49:56;3.23;;;2.93;;
1178;SDS011;578;48.408;10.004;2022-12-29T09:52:29;4.60;;;3.00;;
1178;SDS011;578;48.408;10.004;2022-12-29T09:54:59;4.80;;;3.30;;
1178;SDS011;578;48.408;10.004;2022-12-29T09:57:29;2.70;;;2.33;;
1178;SDS011;578;48.408;10.004;2022-12-29T10:00:01;3.53;;;2.50;;
1178;SDS011;578;48.408;10.004;2022-12-29T10:02:36;5.13;;;3.00;;
1178;SDS011;578;48.408;10.004;2022-12-29T10:05:09;6.47;;;3.77;;
1178;SDS011;578;48.408;10.004;2022-12-29T10:07:44;4.37;;;2.57;;
1178;SDS011;578;48.408;10.004;2022-12-29T10:10:20;3.17;;;2.77;;
1178;SDS011;578;48.408;10.004;2022-12-29T10:13:01;5.50;;;3.57;;
1178;SDS011;578;48.408;10.004;2022-12-29T10:15:41;4.87;;;3.60;;
1178;SDS011;578;48.408;10.004;2022-12-29T10:18:22;5.23;;;3.10;;
1178;SDS011;578;48.408;10.004;2022-12-29T10:20:58;4.47;;;2.50;;
1178;SDS011;578;48.408;10.004;2022-12-29T10:23:33;3.33;;;2.50;;
1178;SDS011;578;48.408;10.004;2022-12-29T10:26:05;4.03;;;3.07;;
1178;SDS011;578;48.408;10.004;2022-12-29T10:28:40;3.03;;;2.30;;
1178;SDS011;578;48.408;10.004;2022-12-29T10:31:13;9.47;;;2.30;;
1178;SDS011;578;48.408;10.004;2022-12-29T10:33:49;4.70;;;2.80;;
1178;SDS011;578;48.408;10.004;2022-12-29T10:36:18;3.87;;;2.50;;
1178;SDS011;578;48.408;10.004;2022-12-29T10:38:59;4.23;;;2.70;;
1178;SDS011;578;48.408;10.004;2022-12-29T10:41:34;4.10;;;2.77;;
1178;SDS011;578;48.408;10.004;2022-12-29T10:44:07;3.30;;;3.00;;
1178;SDS011;578;48.408;10.004;2022-12-29T10:46:38;6.63;;;2.80;;
1178;SDS011;578;48.408;10.004;2022-12-29T10:49:09;8.50;;;3.07;;
1178;SDS011;578;48.408;10.004;2022-12-29T10:51:42;2.80;;;2.20;;
1178;SDS011;578;48.408;10.004;2022-12-29T10:54:13;3.67;;;2.53;;
1178;SDS011;578;48.408;10.004;2022-12-29T10:56:45;4.37;;;2.70;;
1178;SDS011;578;48.408;10.004;2022-12-29T10:59:16;5.20;;;2.53;;
1178;SDS011;578;48.408;10.004;2022-12-29T11:01:50;2.70;;;1.80;;
1178;SDS011;578;48.408;10.004;2022-12-29T11:04:31;3.43;;;2.40;;
1178;SDS011;578;48.408;10.004;2022-12-29T11:07:04;3.67;;;2.33;;
1178;SDS011;578;48.408;10.004;2022-12-29T11:09:32;3.80;;;2.83;;
1178;SDS011;578;48.408;10.004;2022-12-29T11:12:05;5.70;;;2.20;;
1178;SDS011;578;48.408;10.004;2022-12-29T11:14:45;4.37;;;3.17;;
1178;SDS011;578;48.408;10.004;2022-12-29T11:17:14;3.70;;;2.50;;
1178;SDS011;578;48.408;10.004;2022-12-29T11:19:43;6.63;;;2.27;;
1178;SDS011;578;48.408;10.004;2022-12-29T11:22:13;3.20;;;2.60;;
1178;SDS011;578;48.408;10.004;2022-12-29T11:24:47;4.30;;;2.43;;
1178;SDS011;578;48.408;10.004;2022-12-29T11:27:15;2.40;;;1.60;;
1178;SDS011;578;48.408;10.004;2022-12-29T11:29:44;6.60;;;2.27;;
1178;SDS011;578;48.408;10.004;2022-12-29T11:32:12;8.70;;;2.57;;
1178;SDS011;578;48.408;10.004;2022-12-29T11:34:45;2.80;;;1.47;;
1178;SDS011;578;48.408;10.004;2022-12-29T11:37:12;6.03;;;1.83;;
1178;SDS011;578;48.408;10.004;2022-12-29T11:39:43;6.30;;;1.80;;
1178;SDS011;578;48.408;10.004;2022-12-29T11:42:17;2.77;;;1.83;;
1178;SDS011;578;48.408;10.004;2022-12-29T11:44:48;2.60;;;1.60;;
1178;SDS011;578;48.408;10.004;2022-12-29T11:47:21;2.30;;;1.80;;
1178;SDS011;578;48.408;10.004;2022-12-29T11:49:53;2.57;;;1.70;;
1178;SDS011;578;48.408;10.004;2022-12-29T11:52:23;5.00;;;2.50;;
1178;SDS011;578;48.408;10.004;2022-12-29T11:54:52;4.50;;;1.77;;
1178;SDS011;578;48.408;10.004;2022-12-29T11:57:20;3.70;;;2.33;;
1178;SDS011;578;48.408;10.004;2022-12-29T11:59:49;4.37;;;2.00;;
1178;SDS011;578;48.408;10.004;2022-12-29T12:02:28;3.40;;;2.57;;
1178;SDS011;578;48.408;10.004;2022-12-29T12:05:10;4.23;;;1.80;;
1178;SDS011;578;48.408;10.004;2022-12-29T12:07:44;7.40;;;2.00;;
1178;SDS011;578;48.408;10.004;2022-12-29T12:10:15;2.87;;;1.80;;
1178;SDS011;578;48.408;10.004;2022-12-29T12:12:47;4.27;;;2.50;;
1178;SDS011;578;48.408;10.004;2022-12-29T12:15:19;2.70;;;1.83;;
1178;SDS011;578;48.408;10.004;2022-12-29T12:17:51;3.20;;;2.10;;
1178;SDS011;578;48.408;10.004;2022-12-29T12:20:24;3.77;;;1.70;;
1178;SDS011;578;48.408;10.004;2022-12-29T12:23:02;2.10;;;1.80;;
1178;SDS011;578;48.408;10.004;2022-12-29T12:25:40;2.60;;;1.50;;
1178;SDS011;578;48.408;10.004;2022-12-29T12:28:15;2.93;;;1.80;;
1178;SDS011;578;48.408;10.004;2022-12-29T12:30:50;3.10;;;1.90;;
1178;SDS011;578;48.408;10.004;2022-12-29T12:33:24;7.73;;;2.20;;
1178;SDS011;578;48.408;10.004;2022-12-29T12:36:01;6.00;;;2.20;;
1178;SDS011;578;48.408;10.004;2022-12-29T12:38:40;2.27;;;1.83;;
1178;SDS011;578;48.408;10.004;2022-12-29T12:41:16;3.90;;;1.27;;
1178;SDS011;578;48.408;10.004;2022-12-29T12:43:52;3.43;;;1.83;;
1178;SDS011;578;48.408;10.004;2022-12-29T12:46:36;3.07;;;1.83;;
1178;SDS011;578;48.408;10.004;2022-12-29T12:52:19;2.47;;;2.00;;
1178;SDS011;578;48.408;10.004;2022-12-29T12:55:01;3.40;;;2.30;;
1178;SDS011;578;48.408;10.004;2022-12-29T12:57:56;3.90;;;2.43;;
1178;SDS011;578;48.408;10.004;2022-12-29T13:00:30;3.27;;;1.83;;
1178;SDS011;578;48.408;10.004;2022-12-29T13:03:05;5.07;;;2.23;;
1178;SDS011;578;48.408;10.004;2022-12-29T13:05:50;3.33;;;2.30;;
1178;SDS011;578;48.408;10.004;2022-12-29T13:09:00;7.43;;;2.13;;
1178;SDS011;578;48.408;10.004;2022-12-29T13:11:51;3.80;;;2.30;;
1178;SDS011;578;48.408;10.004;2022-12-29T13:14:33;13.00;;;3.07;;
1178;SDS011;578;48.408;10.004;2022-12-29T13:17:07;3.83;;;2.27;;
1178;SDS011;578;48.408;10.004;2022-12-29T13:19:40;7.07;;;2.20;;
1178;SDS011;578;48.408;10.004;2022-12-29T13:22:13;4.03;;;1.80;;
1178;SDS011;578;48.408;10.004;2022-12-29T13:24:50;3.63;;;2.33;;
1178;SDS011;578;48.408;10.004;2022-12-29T13:27:25;5.20;;;2.30;;
1178;SDS011;578;48.408;10.004;2022-12-29T13:30:00;6.57;;;2.63;;
1178;SDS011;578;48.408;10.004;2022-12-29T13:32:35;10.33;;;2.70;;
1178;SDS011;578;48.408;10.004;2022-12-29T13:35:17;4.53;;;2.30;;
1178;SDS011;578;48.408;10.004;2022-12-29T13:37:53;3.23;;;1.90;;
1178;SDS011;578;48.408;10.004;2022-12-29T13:40:24;3.33;;;2.27;;
1178;SDS011;578;48.408;10.004;2022-12-29T13:42:55;3.57;;;1.90;;
1178;SDS011;578;48.408;10.004;2022-12-29T13:45:22;2.43;;;2.00;;
1178;SDS011;578;48.408;10.004;2022-12-29T13:47:53;1.90;;;1.70;;
1178;SDS011;578;48.408;10.004;2022-12-29T13:50:25;2.70;;;2.10;;
1178;SDS011;578;48.408;10.004;2022-12-29T13:52:55;3.40;;;1.70;;
1178;SDS011;578;48.408;10.004;2022-12-29T13:55:31;2.70;;;2.27;;
1178;SDS011;578;48.408;10.004;2022-12-29T13:58:03;5.83;;;2.30;;
1178;SDS011;578;48.408;10.004;2022-12-29T14:00:38;3.87;;;2.40;;
1178;SDS011;578;48.408;10.004;2022-12-29T14:03:17;3.23;;;2.07;;
1178;SDS011;578;48.408;10.004;2022-12-29T14:06:04;2.53;;;1.90;;
1178;SDS011;578;48.408;10.004;2022-12-29T14:08:40;1.93;;;1.63;;
1178;SDS011;578;48.408;10.004;2022-12-29T14:11:09;2.67;;;1.40;;
1178;SDS011;578;48.408;10.004;2022-12-29T14:13:37;5.30;;;1.60;;
1178;SDS011;578;48.408;10.004;2022-12-29T14:16:06;3.93;;;2.03;;
1178;SDS011;578;48.408;10.004;2022-12-29T14:18:34;4.90;;;1.97;;
1178;SDS011;578;48.408;10.004;2022-12-29T14:21:10;4.23;;;1.87;;
1178;SDS011;578;48.408;10.004;2022-12-29T14:23:47;2.30;;;1.63;;
1178;SDS011;578;48.408;10.004;2022-12-29T14:26:18;3.20;;;1.77;;
1178;SDS011;578;48.408;10.004;2022-12-29T14:29:15;3.23;;;1.93;;
1178;SDS011;578;48.408;10.004;2022-12-29T14:32:09;2.53;;;1.63;;
1178;SDS011;578;48.408;10.004;2022-12-29T14:38:06;2.13;;;1.90;;
1178;SDS011;578;48.408;10.004;2022-12-29T14:40:40;3.97;;;2.07;;
1178;SDS011;578;48.408;10.004;2022-12-29T14:43:12;2.10;;;1.57;;
1178;SDS011;578;48.408;10.004;2022-12-29T14:45:47;4.90;;;2.10;;
1178;SDS011;578;48.408;10.004;2022-12-29T14:48:28;2.63;;;1.80;;
1178;SDS011;578;48.408;10.004;2022-12-29T14:51:01;3.73;;;1.97;;
1178;SDS011;578;48.408;10.004;2022-12-29T14:53:43;2.77;;;1.60;;
1178;SDS011;578;48.408;10.004;2022-12-29T14:56:13;3.27;;;2.10;;
1178;SDS011;578;48.408;10.004;2022-12-29T14:58:44;6.07;;;2.30;;
1178;SDS011;578;48.408;10.004;2022-12-29T15:01:17;4.47;;;2.17;;
1178;SDS011;578;48.408;10.004;2022-12-29T15:03:46;2.23;;;1.77;;
1178;SDS011;578;48.408;10.004;2022-12-29T15:06:15;4.33;;;2.17;;
1178;SDS011;578;48.408;10.004;2022-12-29T15:08:48;2.87;;;2.10;;
1178;SDS011;578;48.408;10.004;2022-12-29T15:11:18;7.37;;;2.80;;
1178;SDS011;578;48.408;10.004;2022-12-29T15:13:47;5.83;;;2.10;;
1178;SDS011;578;48.408;10.004;2022-12-29T15:16:22;3.90;;;2.17;;
1178;SDS011;578;48.408;10.004;2022-12-29T15:18:50;5.93;;;4.10;;
1178;SDS011;578;48.408;10.004;2022-12-29T15:21:17;5.33;;;3.00;;
1178;SDS011;578;48.408;10.004;2022-12-29T15:23:48;6.07;;;3.10;;
1178;SDS011;578;48.408;10.004;2022-12-29T15:26:15;6.80;;;3.30;;
1178;SDS011;578;48.408;10.004;2022-12-29T15:28:49;4.67;;;3.10;;
1178;SDS011;578;48.408;10.004;2022-12-29T15:31:18;3.83;;;2.70;;
1178;SDS011;578;48.408;10.004;2022-12-29T15:33:46;5.60;;;2.57;;
1178;SDS011;578;48.408;10.004;2022-12-29T15:36:18;4.80;;;2.93;;
1178;SDS011;578;48.408;10.004;2022-12-29T15:38:47;5.57;;;3.00;;
1178;SDS011;578;48.408;10.004;2022-12-29T15:41:19;3.00;;;2.27;;
1178;SDS011;578;48.408;10.004;2022-12-29T15:43:55;3.30;;;2.80;;
1178;SDS011;578;48.408;10.004;2022-12-29T15:46:38;2.90;;;2.40;;
1178;SDS011;578;48.408;10.004;2022-12-29T15:49:05;5.33;;;2.70;;
1178;SDS011;578;48.408;10.004;2022-12-29T15:51:35;3.50;;;2.60;;
1178;SDS011;578;48.408;10.004;2022-12-29T15:54:03;3.80;;;3.10;;